Time;durP1;ratioP1;P1;durP2;ratioP2;P2;SDS_P1;SDS_P2;PMS_P1;PMS_P2;Temp;Humidity;BMP_temperature;BMP_pressure;BME280_temperature;BME280_humidity;BME280_pressure;Samples;Min_cycle;Max_cycle;Signal;HPM_P1;HPM_P2
2022/08/01 00:00:48;;;;;;;;;;;23.10;99.90;;;;;;5012829;28;20209;-71
2022/08/01 00:03:17;;;;;;;;;;;23.00;99.90;;;;;;5012902;28;20245;-71
2022/08/01 00:05:46;;;;;;;;;;;23.00;99.90;;;;;;5012920;28;20219;-71
2022/08/01 00:08:14;;;;;;;;;;;22.90;99.90;;;;;;5012712;28;20207;-72
2022/08/01 00:10:41;;;;;;;;;;;22.80;99.90;;;;;;5013028;28;20692;-71
2022/08/01 00:13:09;;;;;;;;;;;22.80;99.90;;;;;;5012396;28;20763;-71
2022/08/01 00:15:38;;;;;;;;;;;22.70;99.90;;;;;;5012741;28;20206;-69
2022/08/01 00:18:06;;;;;;;;;;;22.70;99.90;;;;;;5012869;28;20199;-71
2022/08/01 00:20:35;;;;;;;;;;;22.70;99.90;;;;;;5012897;28;20207;-71
2022/08/01 00:23:03;;;;;;;;;;;22.60;99.90;;;;;;5012617;28;20277;-71
2022/08/01 00:25:30;;;;;;;;;;;22.60;99.90;;;;;;5012761;28;20613;-71
2022/08/01 00:28:01;;;;;;;;;;;22.50;99.90;;;;;;5012402;28;20261;-71
2022/08/01 00:30:31;;;;;;;;;;;22.60;99.90;;;;;;5008062;28;20282;-71
2022/08/01 00:32:59;;;;;;;;;;;22.60;99.90;;;;;;5009329;28;20203;-71
2022/08/01 00:35:26;;;;;;;;;;;22.60;99.90;;;;;;5010323;28;20249;-72
2022/08/01 00:37:55;;;;;;;;;;;22.50;99.90;;;;;;5006758;28;20204;-71
2022/08/01 00:40:23;;;;;;;;;;;22.50;99.90;;;;;;5008771;28;20948;-71
2022/08/01 00:42:51;;;;;;;;;;;22.40;99.90;;;;;;5008211;28;20203;-70
2022/08/01 00:45:19;;;;;;;;;;;22.50;99.90;;;;;;5010656;28;20195;-70
2022/08/01 00:47:47;;;;;;;;;;;22.40;99.90;;;;;;5009281;28;20192;-71
2022/08/01 00:50:21;;;;;;;;;;;22.50;99.90;;;;;;5010741;28;20191;-71
2022/08/01 00:52:51;;;;;;;;;;;22.40;99.90;;;;;;5008576;28;20290;-70
2022/08/01 00:55:21;;;;;;;;;;;22.30;99.90;;;;;;5011150;28;20739;-71
2022/08/01 00:57:48;;;;;;;;;;;22.30;99.90;;;;;;5009079;28;20199;-69
2022/08/01 01:00:33;;;;;;;;;;;22.30;99.90;;;;;;5003059;28;20648;-71
2022/08/01 01:03:21;;;;;;;;;;;22.20;99.90;;;;;;5007080;28;20653;-70
2022/08/01 01:06:08;;;;;;;;;;;22.20;99.90;;;;;;5005306;28;20369;-71
2022/08/01 01:08:40;;;;;;;;;;;22.20;99.90;;;;;;5006152;28;20726;-70
2022/08/01 01:11:12;;;;;;;;;;;22.10;99.90;;;;;;5009871;28;20202;-71
2022/08/01 01:13:43;;;;;;;;;;;22.10;99.90;;;;;;5006160;28;20199;-71
2022/08/01 01:16:19;;;;;;;;;;;22.10;99.90;;;;;;5009142;28;20207;-70
2022/08/01 01:18:48;;;;;;;;;;;22.10;99.90;;;;;;5007567;28;20203;-71
2022/08/01 01:21:29;;;;;;;;;;;22.10;99.90;;;;;;5006496;28;20207;-72
2022/08/01 01:24:03;;;;;;;;;;;22.20;99.90;;;;;;5004918;28;20187;-72
2022/08/01 01:26:37;;;;;;;;;;;22.10;99.90;;;;;;5009459;28;20199;-72
2022/08/01 01:29:09;;;;;;;;;;;22.10;99.90;;;;;;5009218;28;20226;-71
2022/08/01 01:31:41;;;;;;;;;;;22.00;99.90;;;;;;5007460;28;20257;-72
2022/08/01 01:34:10;;;;;;;;;;;22.00;99.90;;;;;;5009180;28;20195;-70
2022/08/01 01:36:38;;;;;;;;;;;21.90;99.90;;;;;;5008643;28;20207;-71
2022/08/01 01:39:07;;;;;;;;;;;21.90;99.90;;;;;;5007545;28;20265;-71
2022/08/01 01:41:36;;;;;;;;;;;21.90;99.90;;;;;;5009662;28;20203;-71
2022/08/01 01:44:05;;;;;;;;;;;21.90;99.90;;;;;;5007370;28;20203;-70
2022/08/01 01:46:34;;;;;;;;;;;21.90;99.90;;;;;;5008194;28;20297;-71
2022/08/01 01:49:02;;;;;;;;;;;21.90;99.90;;;;;;5008877;28;20220;-71
2022/08/01 01:51:31;;;;;;;;;;;21.90;99.90;;;;;;5006220;28;20203;-71
2022/08/01 01:53:59;;;;;;;;;;;21.80;99.90;;;;;;5006062;28;20643;-72
2022/08/01 01:56:27;;;;;;;;;;;21.80;99.90;;;;;;5008937;28;20246;-72
2022/08/01 01:58:57;;;;;;;;;;;21.70;99.90;;;;;;5008297;28;21948;-71
2022/08/01 02:01:26;;;;;;;;;;;21.70;99.90;;;;;;5007274;28;20619;-71
2022/08/01 02:04:15;;;;;;;;;;;21.50;99.90;;;;;;5008944;28;20218;-71
2022/08/01 02:06:44;;;;;;;;;;;21.60;99.90;;;;;;5006570;28;20259;-72
2022/08/01 02:09:12;;;;;;;;;;;21.60;99.90;;;;;;5005316;28;20682;-71
2022/08/01 02:11:40;;;;;;;;;;;21.50;99.90;;;;;;5007078;28;20199;-71
2022/08/01 02:14:29;;;;;;;;;;;21.40;99.90;;;;;;5008403;28;20201;-71
2022/08/01 02:16:58;;;;;;;;;;;21.50;99.90;;;;;;5005977;28;20210;-70
2022/08/01 02:19:28;;;;;;;;;;;21.40;99.90;;;;;;5007356;28;20627;-73
2022/08/01 02:21:56;;;;;;;;;;;21.40;99.90;;;;;;5009656;28;20676;-70
2022/08/01 02:24:28;;;;;;;;;;;21.30;99.90;;;;;;5011175;28;20203;-71
2022/08/01 02:27:00;;;;;;;;;;;21.30;99.90;;;;;;5005558;28;20739;-71
2022/08/01 02:29:32;;;;;;;;;;;21.20;99.90;;;;;;5006988;28;20195;-71
2022/08/01 02:32:00;;;;;;;;;;;21.30;99.90;;;;;;5004723;28;20199;-73
2022/08/01 02:34:31;;;;;;;;;;;21.20;99.90;;;;;;5007477;28;20195;-70
2022/08/01 02:37:01;;;;;;;;;;;21.20;99.90;;;;;;5010464;28;20203;-71
2022/08/01 02:39:30;;;;;;;;;;;21.20;99.90;;;;;;5002962;28;20693;-72
2022/08/01 02:41:59;;;;;;;;;;;21.10;99.90;;;;;;5006871;28;20831;-71
2022/08/01 02:44:29;;;;;;;;;;;21.10;99.90;;;;;;5006192;28;20265;-71
2022/08/01 02:47:01;;;;;;;;;;;21.20;99.90;;;;;;5003507;28;20199;-71
2022/08/01 02:49:33;;;;;;;;;;;21.20;99.90;;;;;;5006502;28;20272;-72
2022/08/01 02:52:02;;;;;;;;;;;21.20;99.90;;;;;;5007374;28;20629;-72
2022/08/01 02:54:31;;;;;;;;;;;21.20;99.90;;;;;;5006537;28;20196;-72
2022/08/01 02:57:01;;;;;;;;;;;21.10;99.90;;;;;;5006787;28;20265;-72
2022/08/01 02:59:31;;;;;;;;;;;21.00;99.90;;;;;;5010275;28;20290;-72
2022/08/01 03:01:59;;;;;;;;;;;20.90;99.90;;;;;;5011442;28;20203;-71
2022/08/01 03:04:30;;;;;;;;;;;20.80;99.90;;;;;;5008931;28;20747;-72
2022/08/01 03:07:00;;;;;;;;;;;20.70;99.90;;;;;;5011464;28;20187;-71
2022/08/01 03:09:30;;;;;;;;;;;20.60;99.90;;;;;;5009782;28;20211;-71
2022/08/01 03:11:59;;;;;;;;;;;20.70;99.90;;;;;;5010412;28;20250;-73
2022/08/01 03:14:28;;;;;;;;;;;20.60;99.90;;;;;;5009373;28;20196;-71
2022/08/01 03:16:56;;;;;;;;;;;20.50;99.90;;;;;;5007728;28;20187;-69
2022/08/01 03:19:27;;;;;;;;;;;20.40;99.90;;;;;;5009674;28;20199;-72
2022/08/01 03:21:56;;;;;;;;;;;20.40;99.90;;;;;;5010228;28;20203;-69
2022/08/01 03:24:26;;;;;;;;;;;20.30;99.90;;;;;;5009612;28;20192;-71
2022/08/01 03:26:55;;;;;;;;;;;20.30;99.90;;;;;;5012097;28;20660;-69
2022/08/01 03:29:25;;;;;;;;;;;20.40;99.90;;;;;;5011663;28;20222;-71
2022/08/01 03:31:53;;;;;;;;;;;20.30;99.90;;;;;;5011483;28;20234;-67
2022/08/01 03:34:21;;;;;;;;;;;20.30;99.90;;;;;;5010231;28;20257;-70
2022/08/01 03:37:00;;;;;;;;;;;20.40;99.90;;;;;;5008641;28;20592;-70
2022/08/01 03:39:31;;;;;;;;;;;20.40;99.90;;;;;;5008659;28;20222;-71
2022/08/01 03:42:02;;;;;;;;;;;20.40;99.90;;;;;;5010394;28;20211;-68
2022/08/01 03:44:32;;;;;;;;;;;20.40;99.90;;;;;;5013031;28;20250;-71
2022/08/01 03:47:03;;;;;;;;;;;20.40;99.90;;;;;;5009849;28;20200;-71
2022/08/01 03:49:31;;;;;;;;;;;20.50;99.90;;;;;;5009551;28;20235;-71
2022/08/01 03:52:01;;;;;;;;;;;20.60;99.90;;;;;;5009709;28;20207;-72
2022/08/01 03:54:33;;;;;;;;;;;20.60;99.90;;;;;;5009289;28;20199;-71
2022/08/01 03:57:01;;;;;;;;;;;20.60;99.90;;;;;;5007820;28;20685;-71
2022/08/01 03:59:29;;;;;;;;;;;20.60;99.90;;;;;;5009270;28;20261;-72
2022/08/01 04:01:58;;;;;;;;;;;20.70;99.90;;;;;;5009098;28;20191;-72
2022/08/01 04:04:26;;;;;;;;;;;20.60;99.90;;;;;;5005978;28;20206;-72
2022/08/01 04:06:54;;;;;;;;;;;20.60;99.90;;;;;;5009741;28;20216;-71
2022/08/01 04:09:22;;;;;;;;;;;20.60;99.90;;;;;;5007010;28;20257;-71
2022/08/01 04:11:52;;;;;;;;;;;20.60;99.90;;;;;;5010663;28;20199;-70
2022/08/01 04:14:20;;;;;;;;;;;20.60;99.90;;;;;;5009358;28;20203;-72
2022/08/01 04:16:48;;;;;;;;;;;20.50;99.90;;;;;;5010597;28;20223;-71
2022/08/01 04:19:15;;;;;;;;;;;20.60;99.90;;;;;;5010861;28;20203;-71
2022/08/01 04:21:43;;;;;;;;;;;20.60;99.90;;;;;;5010204;28;20197;-71
2022/08/01 04:24:13;;;;;;;;;;;20.50;99.90;;;;;;5008364;28;20192;-71
2022/08/01 04:26:42;;;;;;;;;;;20.40;99.90;;;;;;5009523;28;20673;-72
2022/08/01 04:29:11;;;;;;;;;;;20.40;99.90;;;;;;5009430;28;20200;-71
2022/08/01 04:31:42;;;;;;;;;;;20.50;99.90;;;;;;5005056;28;20195;-71
2022/08/01 04:34:10;;;;;;;;;;;20.40;99.90;;;;;;5005662;28;20207;-70
2022/08/01 04:36:41;;;;;;;;;;;20.40;99.90;;;;;;5006213;28;20195;-73
2022/08/01 04:39:09;;;;;;;;;;;20.40;99.90;;;;;;5004613;28;20608;-71
2022/08/01 04:41:38;;;;;;;;;;;20.40;99.90;;;;;;5030642;23;20203;-64
2022/08/01 04:44:06;;;;;;;;;;;20.40;99.90;;;;;;5018991;28;20198;-65
2022/08/01 04:46:36;;;;;;;;;;;20.40;99.90;;;;;;5026711;28;20195;-65
2022/08/01 04:49:06;;;;;;;;;;;20.50;99.90;;;;;;5026636;28;20194;-65
2022/08/01 04:51:34;;;;;;;;;;;20.50;99.90;;;;;;5031544;28;20207;-65
2022/08/01 04:54:02;;;;;;;;;;;20.60;99.90;;;;;;5013376;28;20631;-65
2022/08/01 04:56:29;;;;;;;;;;;20.60;99.90;;;;;;5019200;28;20253;-65
2022/08/01 05:01:51;;;;;;;;;;;20.70;99.90;;;;;;5021347;28;20202;-64
2022/08/01 05:04:19;;;;;;;;;;;20.80;99.90;;;;;;5021292;28;20195;-65
2022/08/01 05:06:47;;;;;;;;;;;20.80;99.90;;;;;;5019307;28;20232;-65
2022/08/01 05:09:15;;;;;;;;;;;20.90;99.90;;;;;;5020467;28;20203;-65
2022/08/01 05:11:43;;;;;;;;;;;20.90;99.90;;;;;;5025261;28;20286;-65
2022/08/01 05:14:11;;;;;;;;;;;21.00;99.90;;;;;;5022063;28;20621;-65
2022/08/01 05:16:39;;;;;;;;;;;21.00;99.90;;;;;;5026253;28;20198;-65
2022/08/01 05:19:08;;;;;;;;;;;21.10;99.90;;;;;;5029598;28;20206;-64
2022/08/01 05:21:37;;;;;;;;;;;21.00;99.90;;;;;;5025508;28;20202;-64
2022/08/01 05:24:05;;;;;;;;;;;21.10;99.90;;;;;;5027387;28;20245;-65
2022/08/01 05:26:33;;;;;;;;;;;21.20;99.90;;;;;;5025551;28;20198;-66
2022/08/01 05:29:03;;;;;;;;;;;21.30;99.90;;;;;;5030310;28;20618;-66
2022/08/01 05:31:33;;;;;;;;;;;21.30;99.90;;;;;;5028665;28;20199;-64
2022/08/01 05:34:01;;;;;;;;;;;21.40;99.90;;;;;;5023742;28;20194;-64
2022/08/01 05:36:30;;;;;;;;;;;21.50;99.90;;;;;;5024531;28;20194;-65
2022/08/01 05:38:58;;;;;;;;;;;21.60;99.90;;;;;;5025484;28;20214;-65
2022/08/01 05:41:26;;;;;;;;;;;21.60;99.90;;;;;;5017565;28;20524;-65
2022/08/01 05:43:54;;;;;;;;;;;21.70;99.90;;;;;;5023693;28;20683;-64
2022/08/01 05:46:21;;;;;;;;;;;21.80;99.90;;;;;;5022446;28;20214;-65
2022/08/01 05:48:52;;;;;;;;;;;21.80;99.90;;;;;;5019708;28;20343;-65
2022/08/01 05:51:20;;;;;;;;;;;21.90;99.90;;;;;;5017382;28;20195;-65
2022/08/01 05:53:49;;;;;;;;;;;21.90;99.90;;;;;;5024845;28;20675;-65
2022/08/01 05:56:17;;;;;;;;;;;22.00;99.90;;;;;;5017462;28;20258;-65
2022/08/01 05:58:45;;;;;;;;;;;22.00;99.90;;;;;;5019083;28;20186;-65
2022/08/01 06:01:13;;;;;;;;;;;22.10;99.90;;;;;;5021059;28;20194;-64
2022/08/01 06:03:40;;;;;;;;;;;22.20;99.90;;;;;;5016652;28;20253;-64
2022/08/01 06:06:08;;;;;;;;;;;22.20;99.90;;;;;;5017130;28;20199;-65
2022/08/01 06:08:36;;;;;;;;;;;22.20;99.90;;;;;;5017414;28;20183;-64
2022/08/01 06:11:05;;;;;;;;;;;22.30;99.90;;;;;;5017486;28;20198;-65
2022/08/01 06:13:33;;;;;;;;;;;22.20;99.90;;;;;;5023744;28;20215;-65
2022/08/01 06:16:15;;;;;;;;;;;22.30;99.90;;;;;;5020480;28;20195;-65
2022/08/01 06:18:43;;;;;;;;;;;22.30;99.90;;;;;;5022773;28;20198;-65
2022/08/01 06:21:11;;;;;;;;;;;22.30;99.90;;;;;;5023510;28;20207;-65
2022/08/01 06:23:41;;;;;;;;;;;22.40;99.90;;;;;;5024352;28;20198;-65
2022/08/01 06:26:10;;;;;;;;;;;22.50;99.90;;;;;;5023611;28;20857;-65
2022/08/01 06:28:38;;;;;;;;;;;22.60;99.90;;;;;;5018453;28;20246;-65
2022/08/01 06:31:06;;;;;;;;;;;22.80;99.90;;;;;;5027613;28;20680;-65
2022/08/01 06:33:33;;;;;;;;;;;22.90;99.90;;;;;;5029053;28;20209;-64
2022/08/01 06:36:01;;;;;;;;;;;23.00;99.90;;;;;;5024077;28;20676;-63
2022/08/01 06:38:29;;;;;;;;;;;23.10;99.90;;;;;;5028465;28;20195;-64
2022/08/01 06:40:57;;;;;;;;;;;23.20;99.90;;;;;;5044268;28;20199;-64
2022/08/01 06:43:26;;;;;;;;;;;23.20;99.90;;;;;;5029936;28;20226;-66
2022/08/01 06:45:54;;;;;;;;;;;23.20;99.90;;;;;;5028681;28;20574;-65
2022/08/01 06:48:22;;;;;;;;;;;23.10;99.90;;;;;;5026353;28;20195;-64
2022/08/01 06:51:07;;;;;;;;;;;23.10;99.90;;;;;;5027459;28;20199;-63
2022/08/01 06:53:35;;;;;;;;;;;23.10;99.90;;;;;;5026837;28;20249;-64
2022/08/01 06:56:03;;;;;;;;;;;23.20;99.90;;;;;;5027464;28;20210;-65
2022/08/01 06:58:34;;;;;;;;;;;23.20;99.90;;;;;;5026529;28;20262;-65
2022/08/01 07:01:02;;;;;;;;;;;23.20;99.90;;;;;;5021607;28;20211;-65
2022/08/01 07:03:31;;;;;;;;;;;23.30;99.90;;;;;;5020576;28;20215;-65
2022/08/01 07:06:19;;;;;;;;;;;23.40;99.90;;;;;;5027117;28;20230;-64
2022/08/01 07:08:47;;;;;;;;;;;23.30;99.90;;;;;;5027180;28;20241;-64
2022/08/01 07:11:15;;;;;;;;;;;23.30;99.90;;;;;;5022241;28;22034;-64
2022/08/01 07:13:45;;;;;;;;;;;23.30;99.90;;;;;;5028526;28;20202;-64
2022/08/01 07:16:13;;;;;;;;;;;23.40;99.90;;;;;;5021751;28;20213;-65
2022/08/01 07:18:41;;;;;;;;;;;23.50;99.90;;;;;;5027717;28;20194;-64
2022/08/01 07:21:09;;;;;;;;;;;23.70;99.90;;;;;;5017400;28;20203;-66
2022/08/01 07:23:56;;;;;;;;;;;23.70;99.90;;;;;;5027841;28;20870;-64
2022/08/01 07:26:26;;;;;;;;;;;23.70;99.90;;;;;;5026602;28;20237;-65
2022/08/01 07:28:55;;;;;;;;;;;23.80;99.90;;;;;;5026433;28;20206;-65
2022/08/01 07:31:23;;;;;;;;;;;24.00;99.90;;;;;;5021360;28;20210;-65
2022/08/01 07:33:56;;;;;;;;;;;24.10;99.90;;;;;;5025888;28;20635;-65
2022/08/01 07:36:23;;;;;;;;;;;24.00;99.90;;;;;;5028639;28;20221;-65
2022/08/01 07:38:51;;;;;;;;;;;24.00;99.90;;;;;;5026229;28;20286;-65
2022/08/01 07:41:19;;;;;;;;;;;23.90;99.90;;;;;;5024445;28;20211;-65
2022/08/01 07:44:08;;;;;;;;;;;23.90;99.90;;;;;;5023970;28;20656;-65
2022/08/01 07:46:36;;;;;;;;;;;24.00;99.90;;;;;;5025131;28;20195;-66
2022/08/01 07:49:04;;;;;;;;;;;24.10;99.90;;;;;;5023700;28;20245;-65
2022/08/01 07:51:32;;;;;;;;;;;24.20;99.90;;;;;;5019637;28;20244;-65
2022/08/01 07:53:59;;;;;;;;;;;24.20;99.90;;;;;;5024384;28;20195;-65
2022/08/01 07:56:27;;;;;;;;;;;24.20;99.90;;;;;;5020912;28;20722;-65
2022/08/01 07:58:55;;;;;;;;;;;24.20;99.90;;;;;;5025600;28;20195;-65
2022/08/01 08:01:24;;;;;;;;;;;24.40;99.90;;;;;;5021569;28;20211;-66
2022/08/01 08:03:52;;;;;;;;;;;24.70;99.90;;;;;;5021865;28;20891;-66
2022/08/01 08:06:20;;;;;;;;;;;24.80;99.90;;;;;;5035508;28;20609;-65
2022/08/01 08:08:47;;;;;;;;;;;24.70;99.90;;;;;;5021903;28;20207;-65
2022/08/01 08:11:16;;;;;;;;;;;24.70;99.90;;;;;;5022245;28;20599;-65
2022/08/01 08:13:44;;;;;;;;;;;24.60;99.90;;;;;;5020759;28;20629;-66
2022/08/01 08:16:11;;;;;;;;;;;24.60;99.90;;;;;;5019636;28;20222;-65
2022/08/01 08:18:40;;;;;;;;;;;24.60;99.90;;;;;;5020458;28;20187;-65
2022/08/01 08:21:08;;;;;;;;;;;24.50;99.90;;;;;;5023414;28;20207;-65
2022/08/01 08:26:25;;;;;;;;;;;24.50;99.90;;;;;;5018140;28;20203;-65
2022/08/01 08:28:55;;;;;;;;;;;24.50;99.90;;;;;;5022662;28;20199;-66
2022/08/01 08:31:23;;;;;;;;;;;24.50;99.90;;;;;;5020955;28;20287;-65
2022/08/01 08:34:12;;;;;;;;;;;24.40;99.90;;;;;;5020845;28;20230;-65
2022/08/01 08:36:42;;;;;;;;;;;24.20;99.90;;;;;;5021333;28;20203;-66
2022/08/01 08:39:14;;;;;;;;;;;24.00;99.90;;;;;;5020918;28;20619;-66
2022/08/01 08:41:46;;;;;;;;;;;24.00;99.90;;;;;;5024264;28;20269;-67
2022/08/01 08:44:17;;;;;;;;;;;23.90;99.90;;;;;;5024772;28;20272;-67
2022/08/01 08:46:46;;;;;;;;;;;24.00;99.90;;;;;;5027007;28;20749;-67
2022/08/01 08:49:17;;;;;;;;;;;24.00;99.90;;;;;;5020288;28;20210;-68
2022/08/01 08:51:47;;;;;;;;;;;24.00;99.90;;;;;;5024120;28;20200;-67
2022/08/01 08:54:15;;;;;;;;;;;23.90;99.90;;;;;;5024330;28;20591;-68
2022/08/01 08:56:44;;;;;;;;;;;23.80;99.90;;;;;;5019542;28;20203;-68
2022/08/01 08:59:12;;;;;;;;;;;23.70;99.90;;;;;;5017056;28;20286;-68
2022/08/01 09:01:41;;;;;;;;;;;23.80;99.90;;;;;;5019267;28;20217;-67
2022/08/01 09:04:08;;;;;;;;;;;24.00;99.90;;;;;;5021104;28;20210;-68
2022/08/01 09:06:38;;;;;;;;;;;24.30;99.90;;;;;;5019072;28;20207;-67
2022/08/01 09:09:06;;;;;;;;;;;24.60;99.90;;;;;;5019857;28;20199;-69
2022/08/01 09:11:34;;;;;;;;;;;24.80;99.90;;;;;;5018326;28;20265;-67
2022/08/01 09:14:06;;;;;;;;;;;24.90;99.90;;;;;;5019098;28;20199;-68
2022/08/01 09:16:34;;;;;;;;;;;25.10;99.90;;;;;;5018250;28;20191;-68
2022/08/01 09:19:09;;;;;;;;;;;25.30;99.90;;;;;;5021418;28;20183;-68
2022/08/01 09:21:57;;;;;;;;;;;25.50;99.90;;;;;;5018985;28;20200;-68
2022/08/01 09:24:31;;;;;;;;;;;25.80;99.90;;;;;;5017224;28;21262;-68
2022/08/01 09:27:00;;;;;;;;;;;26.20;99.90;;;;;;5015815;28;20217;-68
2022/08/01 09:29:31;;;;;;;;;;;26.60;99.90;;;;;;5023965;28;20191;-68
2022/08/01 09:32:07;;;;;;;;;;;27.20;99.90;;;;;;5019714;28;20211;-68
2022/08/01 09:34:42;;;;;;;;;;;27.70;99.90;;;;;;5016992;28;20273;-69
2022/08/01 09:37:17;;;;;;;;;;;28.20;99.90;;;;;;5013598;28;20203;-66
2022/08/01 09:39:57;;;;;;;;;;;28.60;99.90;;;;;;5010984;28;20202;-66
2022/08/01 09:42:25;;;;;;;;;;;28.90;99.90;;;;;;5010999;28;20211;-66
2022/08/01 09:44:56;;;;;;;;;;;29.10;99.90;;;;;;5010931;28;20199;-65
2022/08/01 09:47:37;;;;;;;;;;;29.30;99.90;;;;;;5012743;28;20202;-65
2022/08/01 09:50:06;;;;;;;;;;;29.30;99.90;;;;;;5011045;28;20202;-65
2022/08/01 09:52:39;;;;;;;;;;;29.30;99.90;;;;;;5024797;28;20640;-68
2022/08/01 09:55:08;;;;;;;;;;;29.00;99.90;;;;;;5030417;28;20205;-67
2022/08/01 09:57:36;;;;;;;;;;;28.90;99.90;;;;;;5030432;28;20221;-65
2022/08/01 10:00:04;;;;;;;;;;;28.80;99.90;;;;;;5029206;28;21021;-65
2022/08/01 10:02:33;;;;;;;;;;;28.90;99.90;;;;;;5018283;28;20198;-65
2022/08/01 10:05:02;;;;;;;;;;;28.90;99.90;;;;;;5030269;28;20210;-65
2022/08/01 10:07:36;;;;;;;;;;;28.80;99.90;;;;;;5033620;28;20206;-65
2022/08/01 10:10:13;;;;;;;;;;;28.80;99.90;;;;;;5034602;28;20285;-65
2022/08/01 10:12:42;;;;;;;;;;;28.70;99.90;;;;;;5034277;28;20198;-65
2022/08/01 10:15:11;;;;;;;;;;;28.30;99.90;;;;;;5033978;28;20618;-65
2022/08/01 10:17:42;;;;;;;;;;;27.80;99.90;;;;;;5028876;28;20219;-66
2022/08/01 10:20:18;;;;;;;;;;;27.50;99.90;;;;;;5020586;28;20742;-65
2022/08/01 10:22:59;;;;;;;;;;;27.40;99.90;;;;;;5024593;28;20277;-65
2022/08/01 10:25:34;;;;;;;;;;;27.20;99.90;;;;;;5021121;28;20195;-65
2022/08/01 10:28:14;;;;;;;;;;;27.10;99.90;;;;;;5023246;28;20202;-66
2022/08/01 10:30:48;;;;;;;;;;;27.20;99.90;;;;;;5026701;28;20187;-65
2022/08/01 10:33:16;;;;;;;;;;;27.00;99.90;;;;;;5019795;28;20227;-66
2022/08/01 10:36:05;;;;;;;;;;;27.30;99.90;;;;;;5021105;28;20202;-64
2022/08/01 10:38:35;;;;;;;;;;;28.10;99.90;;;;;;5024597;28;20659;-65
2022/08/01 10:41:05;;;;;;;;;;;28.80;99.90;;;;;;5019019;28;20655;-66
2022/08/01 10:43:35;;;;;;;;;;;29.20;99.90;;;;;;5023088;28;20238;-67
2022/08/01 10:46:04;;;;;;;;;;;29.40;99.90;;;;;;5030864;28;20207;-66
2022/08/01 10:48:35;;;;;;;;;;;29.40;99.90;;;;;;5020193;28;20194;-66
2022/08/01 10:51:04;;;;;;;;;;;29.80;99.90;;;;;;5022603;28;20680;-66
2022/08/01 10:53:50;;;;;;;;;;;30.30;99.10;;;;;;5019951;28;20209;-67
2022/08/01 10:56:22;;;;;;;;;;;30.60;98.80;;;;;;5022954;28;20194;-66
2022/08/01 10:59:01;;;;;;;;;;;31.10;98.10;;;;;;5024785;28;20215;-66
2022/08/01 11:01:33;;;;;;;;;;;31.80;97.60;;;;;;5020482;28;20202;-66
2022/08/01 11:04:09;;;;;;;;;;;31.70;96.90;;;;;;5020291;28;20245;-66
2022/08/01 11:06:54;;;;;;;;;;;31.60;96.70;;;;;;5025115;28;20645;-66
2022/08/01 11:09:24;;;;;;;;;;;31.30;96.80;;;;;;5019277;28;20202;-66
2022/08/01 11:12:09;;;;;;;;;;;31.00;96.60;;;;;;5024618;28;20691;-66
2022/08/01 11:15:00;;;;;;;;;;;30.50;97.70;;;;;;5021317;28;20277;-66
2022/08/01 11:17:33;;;;;;;;;;;29.90;98.00;;;;;;5021468;28;20223;-66
2022/08/01 11:20:05;;;;;;;;;;;29.50;98.60;;;;;;5024538;28;20294;-66
2022/08/01 11:22:49;;;;;;;;;;;28.70;99.30;;;;;;5031461;28;20202;-66
2022/08/01 11:25:18;;;;;;;;;;;28.20;99.90;;;;;;5029048;28;20289;-66
2022/08/01 11:27:48;;;;;;;;;;;28.00;99.90;;;;;;5031491;28;20202;-65
2022/08/01 11:30:23;;;;;;;;;;;27.90;99.90;;;;;;5031827;28;20565;-65
2022/08/01 11:32:51;;;;;;;;;;;27.80;99.90;;;;;;5033760;28;20567;-65
2022/08/01 11:35:39;;;;;;;;;;;27.60;99.90;;;;;;5031195;28;20654;-65
2022/08/01 11:38:23;;;;;;;;;;;27.70;99.90;;;;;;5027075;28;20201;-65
2022/08/01 11:41:09;;;;;;;;;;;27.80;99.90;;;;;;5029265;28;20684;-65
2022/08/01 11:43:55;;;;;;;;;;;28.00;99.90;;;;;;5030330;28;20252;-66
2022/08/01 11:46:37;;;;;;;;;;;28.50;99.90;;;;;;5030877;28;20198;-65
2022/08/01 11:49:24;;;;;;;;;;;29.10;99.40;;;;;;5018643;28;20199;-65
2022/08/01 11:52:06;;;;;;;;;;;29.40;98.40;;;;;;5031319;28;20203;-67
2022/08/01 11:54:36;;;;;;;;;;;29.40;98.70;;;;;;5018845;28;20217;-66
2022/08/01 11:57:04;;;;;;;;;;;29.50;98.40;;;;;;5031712;28;20208;-66
2022/08/01 11:59:38;;;;;;;;;;;29.60;98.60;;;;;;5030825;28;20191;-65
2022/08/01 12:02:18;;;;;;;;;;;29.60;97.80;;;;;;5029081;28;20194;-67
2022/08/01 12:04:58;;;;;;;;;;;29.70;98.10;;;;;;5032135;28;20213;-66
2022/08/01 12:07:27;;;;;;;;;;;29.80;97.50;;;;;;5015117;28;20875;-66
2022/08/01 12:09:58;;;;;;;;;;;30.10;97.20;;;;;;5028787;28;20191;-66
2022/08/01 12:12:26;;;;;;;;;;;30.30;97.10;;;;;;5028517;28;20225;-66
2022/08/01 12:14:56;;;;;;;;;;;30.50;96.10;;;;;;5027971;28;20597;-66
2022/08/01 12:17:31;;;;;;;;;;;30.30;96.80;;;;;;5030599;28;20205;-66
2022/08/01 12:19:59;;;;;;;;;;;30.60;97.20;;;;;;5024683;28;20211;-66
2022/08/01 12:22:27;;;;;;;;;;;30.90;95.50;;;;;;5039033;22;20219;-64
2022/08/01 12:24:55;;;;;;;;;;;31.30;95.40;;;;;;5014934;28;20191;-62
2022/08/01 12:27:26;;;;;;;;;;;31.80;94.90;;;;;;5017483;28;20616;-63
2022/08/01 12:29:56;;;;;;;;;;;32.10;94.20;;;;;;5016595;28;20199;-64
2022/08/01 12:32:27;;;;;;;;;;;32.40;93.40;;;;;;5005839;28;20203;-63
2022/08/01 12:35:04;;;;;;;;;;;32.10;93.00;;;;;;5013793;28;20204;-63
2022/08/01 12:37:32;;;;;;;;;;;31.70;93.10;;;;;;5015524;28;20259;-63
2022/08/01 12:39:59;;;;;;;;;;;31.60;93.60;;;;;;5011838;28;20269;-63
2022/08/01 12:42:27;;;;;;;;;;;31.50;93.60;;;;;;5010711;28;20253;-63
2022/08/01 12:44:56;;;;;;;;;;;31.50;93.40;;;;;;5010234;28;20618;-64
2022/08/01 12:47:24;;;;;;;;;;;31.40;93.40;;;;;;5010961;28;20260;-63
2022/08/01 12:49:52;;;;;;;;;;;31.20;93.30;;;;;;5017270;28;20675;-63
2022/08/01 12:52:22;;;;;;;;;;;31.00;93.80;;;;;;5014775;28;20688;-64
2022/08/01 12:55:08;;;;;;;;;;;30.70;93.20;;;;;;5006091;28;20214;-64
2022/08/01 12:57:37;;;;;;;;;;;30.30;93.00;;;;;;5009523;28;20222;-63
2022/08/01 13:00:07;;;;;;;;;;;30.10;93.50;;;;;;5008966;28;20266;-63
2022/08/01 13:02:35;;;;;;;;;;;30.20;93.70;;;;;;5013593;28;20218;-63
2022/08/01 13:05:04;;;;;;;;;;;30.30;93.70;;;;;;5010900;28;20261;-64
2022/08/01 13:07:38;;;;;;;;;;;30.30;94.10;;;;;;5010020;28;20732;-63
2022/08/01 13:10:13;;;;;;;;;;;30.40;94.00;;;;;;5008291;28;20203;-63
2022/08/01 13:12:41;;;;;;;;;;;30.30;93.90;;;;;;5007139;28;20557;-63
2022/08/01 13:15:34;;;;;;;;;;;30.70;93.70;;;;;;5007238;28;20195;-63
2022/08/01 13:18:22;;;;;;;;;;;31.00;94.10;;;;;;4997724;28;20257;-63
2022/08/01 13:21:07;;;;;;;;;;;30.90;93.10;;;;;;5009023;28;20265;-63
2022/08/01 13:23:35;;;;;;;;;;;30.90;92.70;;;;;;5005584;28;20215;-63
2022/08/01 13:26:37;;;;;;;;;;;30.90;93.40;;;;;;5008116;28;20258;-63
2022/08/01 13:29:06;;;;;;;;;;;30.60;93.10;;;;;;5009425;28;20248;-63
2022/08/01 13:31:34;;;;;;;;;;;30.40;93.20;;;;;;5006514;28;20199;-63
2022/08/01 13:34:02;;;;;;;;;;;30.30;93.30;;;;;;5010055;28;20257;-63
2022/08/01 13:36:32;;;;;;;;;;;30.20;93.40;;;;;;5007094;28;20673;-63
2022/08/01 13:41:46;;;;;;;;;;;29.80;93.70;;;;;;5006539;28;20229;-63
2022/08/01 13:44:14;;;;;;;;;;;29.50;94.10;;;;;;5003006;28;20199;-63
2022/08/01 13:46:42;;;;;;;;;;;29.30;94.20;;;;;;5002701;28;20203;-62
2022/08/01 13:49:17;;;;;;;;;;;29.00;95.20;;;;;;5006680;28;20220;-63
2022/08/01 13:51:49;;;;;;;;;;;28.10;96.20;;;;;;5009379;28;20199;-62
2022/08/01 13:54:17;;;;;;;;;;;27.70;96.90;;;;;;5006981;28;20199;-63
2022/08/01 13:56:45;;;;;;;;;;;27.70;97.60;;;;;;5010087;28;20226;-63
2022/08/01 13:59:13;;;;;;;;;;;27.60;97.70;;;;;;5009364;28;20231;-62
2022/08/01 14:01:41;;;;;;;;;;;27.60;98.20;;;;;;5005769;28;20281;-62
2022/08/01 14:04:09;;;;;;;;;;;27.50;98.20;;;;;;5013309;28;20216;-61
2022/08/01 14:06:36;;;;;;;;;;;27.40;98.30;;;;;;5012728;28;20546;-61
2022/08/01 14:09:06;;;;;;;;;;;27.20;99.70;;;;;;5006873;28;20203;-62
2022/08/01 14:11:45;;;;;;;;;;;27.00;99.50;;;;;;5007674;28;20739;-62
2022/08/01 14:14:13;;;;;;;;;;;26.80;99.90;;;;;;5009385;28;20199;-63
2022/08/01 14:16:41;;;;;;;;;;;26.80;99.90;;;;;;5009407;28;20225;-62
2022/08/01 14:19:08;;;;;;;;;;;26.90;99.90;;;;;;5009785;28;20215;-62
2022/08/01 14:21:36;;;;;;;;;;;27.10;99.90;;;;;;5009955;28;20204;-61
2022/08/01 14:24:06;;;;;;;;;;;27.20;99.90;;;;;;5010488;28;20206;-61
2022/08/01 14:26:35;;;;;;;;;;;27.30;99.90;;;;;;5002809;28;20226;-62
2022/08/01 14:29:03;;;;;;;;;;;27.40;99.90;;;;;;5006397;28;20681;-62
2022/08/01 14:31:31;;;;;;;;;;;27.50;99.90;;;;;;5004701;28;20199;-62
2022/08/01 14:34:01;;;;;;;;;;;27.60;99.90;;;;;;5005318;28;20278;-63
2022/08/01 14:36:29;;;;;;;;;;;27.60;99.90;;;;;;5002987;28;20211;-63
2022/08/01 14:39:04;;;;;;;;;;;27.50;99.90;;;;;;5006414;28;20218;-63
2022/08/01 14:41:33;;;;;;;;;;;27.60;99.90;;;;;;5005105;28;20194;-62
2022/08/01 14:44:03;;;;;;;;;;;27.60;99.90;;;;;;5003016;28;20203;-62
2022/08/01 14:46:31;;;;;;;;;;;27.60;99.90;;;;;;5002541;28;20199;-62